createdAt,value
2023-09-21T00:00:36.394Z,1.10
2023-09-21T00:04:35.379Z,1.10
2023-09-21T00:08:35.241Z,0.80
2023-09-21T00:12:35.037Z,1.60
2023-09-21T00:16:35.173Z,1.00
2023-09-21T00:20:42.571Z,1.20
2023-09-21T00:24:35.058Z,1.00
2023-09-21T00:28:35.289Z,0.80
2023-09-21T00:32:39.694Z,1.40
2023-09-21T00:36:35.665Z,1.20
2023-09-21T00:40:38.986Z,1.10
2023-09-21T00:44:35.058Z,0.90
2023-09-21T00:48:42.890Z,1.30
2023-09-21T00:52:36.415Z,0.90
2023-09-21T00:56:37.308Z,1.00
2023-09-21T01:00:38.961Z,1.00
2023-09-21T01:04:35.394Z,0.90
2023-09-21T01:08:35.085Z,0.80
2023-09-21T01:12:35.856Z,1.00
2023-09-21T01:16:35.248Z,1.10
2023-09-21T01:20:35.566Z,0.90
2023-09-21T01:24:35.401Z,1.60
2023-09-21T01:28:37.139Z,1.00
2023-09-21T01:32:35.153Z,1.30
2023-09-21T01:36:35.878Z,1.00
2023-09-21T01:40:36.891Z,1.20
2023-09-21T01:44:35.258Z,0.90
2023-09-21T01:48:35.532Z,1.20
2023-09-21T01:52:35.517Z,1.00
2023-09-21T01:56:35.274Z,1.20
2023-09-21T02:00:39.586Z,1.10
2023-09-21T02:04:35.272Z,1.10
2023-09-21T02:12:36.314Z,1.00
2023-09-21T02:16:35.341Z,1.10
2023-09-21T02:20:39.017Z,1.00
2023-09-21T02:24:36.592Z,0.90
2023-09-21T02:28:35.926Z,1.20
2023-09-21T02:32:35.378Z,1.20
2023-09-21T02:36:35.566Z,1.10
2023-09-21T02:40:35.816Z,1.20
2023-09-21T02:44:35.534Z,1.10
2023-09-21T02:48:35.437Z,1.20
2023-09-21T02:52:36.224Z,1.20
2023-09-21T02:56:35.608Z,1.40
2023-09-21T03:00:39.786Z,1.10
2023-09-21T03:04:35.470Z,1.60
2023-09-21T03:08:37.042Z,1.20
2023-09-21T03:12:37.000Z,1.40
2023-09-21T03:16:38.572Z,1.50
2023-09-21T03:20:37.022Z,1.30
2023-09-21T03:24:39.782Z,1.50
2023-09-21T03:28:37.157Z,1.10
2023-09-21T03:32:35.705Z,1.40
2023-09-21T03:36:38.389Z,1.50
2023-09-21T03:40:35.621Z,1.50
2023-09-21T03:44:36.366Z,1.40
2023-09-21T03:48:35.965Z,1.60
2023-09-21T03:56:36.496Z,1.30
2023-09-21T04:00:38.709Z,1.70
2023-09-21T04:04:36.424Z,1.40
2023-09-21T04:08:35.814Z,1.70
2023-09-21T04:12:39.304Z,1.90
2023-09-21T04:16:35.780Z,1.50
2023-09-21T04:20:40.045Z,1.80
2023-09-21T04:24:36.313Z,1.40
2023-09-21T04:28:35.979Z,1.30
2023-09-21T04:32:36.944Z,1.80
2023-09-21T04:36:36.019Z,1.60
2023-09-21T04:44:35.948Z,1.70
2023-09-21T04:48:37.001Z,1.70
2023-09-21T04:52:36.256Z,1.80
2023-09-21T05:00:36.722Z,1.50
2023-09-21T05:04:36.019Z,1.60
2023-09-21T05:08:36.218Z,1.80
2023-09-21T05:12:36.049Z,1.90
2023-09-21T05:16:37.958Z,1.70
2023-09-21T05:20:36.222Z,1.50
2023-09-21T05:24:36.624Z,2.00
2023-09-21T05:28:36.308Z,1.80
2023-09-21T05:32:38.058Z,1.90
2023-09-21T05:36:35.863Z,2.10
2023-09-21T05:40:36.097Z,2.20
2023-09-21T05:46:58.194Z,2.50
2023-09-21T05:48:36.440Z,1.80
2023-09-21T05:52:36.102Z,2.40
2023-09-21T05:56:36.132Z,2.40
2023-09-21T06:00:36.244Z,2.40
2023-09-21T06:05:11.535Z,2.30
2023-09-21T06:08:37.342Z,2.60
2023-09-21T06:12:35.944Z,2.80
2023-09-21T06:16:36.249Z,2.60
2023-09-21T06:20:36.035Z,2.40
2023-09-21T06:23:44.694Z,2.40
2023-09-21T06:28:36.589Z,2.20
2023-09-21T06:32:36.141Z,2.30
2023-09-21T06:36:37.506Z,2.20
2023-09-21T06:40:37.098Z,2.40
2023-09-21T06:44:36.855Z,2.50
2023-09-21T06:48:36.909Z,2.10
2023-09-21T06:52:36.081Z,2.20
2023-09-21T06:56:36.288Z,1.90
2023-09-21T07:00:37.587Z,1.70
2023-09-21T07:04:37.809Z,1.80
2023-09-21T07:12:37.547Z,1.80
2023-09-21T07:16:36.157Z,1.80
2023-09-21T07:20:37.444Z,1.40
2023-09-21T07:24:37.351Z,1.40
2023-09-21T07:28:36.379Z,1.40
2023-09-21T07:32:36.273Z,1.70
2023-09-21T07:36:37.788Z,1.80
2023-09-21T07:40:36.259Z,1.50
2023-09-21T07:44:37.176Z,1.80
2023-09-21T07:48:36.532Z,1.80
2023-09-21T07:52:36.745Z,2.10
2023-09-21T07:56:36.289Z,1.50
2023-09-21T08:00:37.152Z,1.60
2023-09-21T08:04:36.990Z,1.40
2023-09-21T08:08:36.376Z,1.40
2023-09-21T08:16:37.800Z,1.50
2023-09-21T08:20:36.913Z,1.30
2023-09-21T08:24:36.561Z,1.40
2023-09-21T08:28:36.571Z,1.90
2023-09-21T08:32:36.740Z,1.40
2023-09-21T08:36:37.197Z,1.60
2023-09-21T08:40:38.400Z,1.30
2023-09-21T08:44:40.110Z,1.40
2023-09-21T08:48:37.260Z,1.20
2023-09-21T08:52:37.858Z,1.10
2023-09-21T08:56:36.916Z,1.10
2023-09-21T09:00:39.179Z,1.60
2023-09-21T09:04:37.097Z,1.10
2023-09-21T09:08:36.521Z,1.40
2023-09-21T09:12:37.883Z,1.30
2023-09-21T09:16:36.719Z,1.30
2023-09-21T09:24:37.167Z,1.00
2023-09-21T09:28:36.772Z,1.10
2023-09-21T09:32:40.348Z,1.20
2023-09-21T09:36:36.867Z,1.10
2023-09-21T09:40:37.975Z,1.20
2023-09-21T09:44:42.772Z,1.10
2023-09-21T09:48:39.880Z,1.20
2023-09-21T09:52:44.842Z,1.30
2023-09-21T09:56:41.601Z,1.20
2023-09-21T10:00:39.314Z,1.40
2023-09-21T10:04:38.525Z,1.20
2023-09-21T10:08:38.993Z,0.90
2023-09-21T10:12:37.949Z,0.90
2023-09-21T10:16:39.113Z,1.20
2023-09-21T10:20:37.668Z,0.90
2023-09-21T10:24:38.160Z,1.20
2023-09-21T10:28:39.197Z,1.10
2023-09-21T10:32:41.883Z,1.10
2023-09-21T10:36:40.732Z,1.30
2023-09-21T10:40:36.771Z,1.20
2023-09-21T10:44:55.750Z,1.10
2023-09-21T10:48:38.068Z,1.10
2023-09-21T10:52:39.573Z,1.00
2023-09-21T10:56:36.825Z,1.10
2023-09-21T11:00:39.630Z,1.00
2023-09-21T11:04:38.139Z,1.00
2023-09-21T11:12:38.440Z,0.90
2023-09-21T11:16:37.740Z,1.20
2023-09-21T11:20:39.533Z,1.30
2023-09-21T11:24:37.792Z,1.40
2023-09-21T11:28:38.011Z,0.90
2023-09-21T11:32:42.012Z,1.10
2023-09-21T11:36:37.418Z,1.00
2023-09-21T11:40:36.927Z,1.10
2023-09-21T11:44:50.042Z,0.80
2023-09-21T11:48:37.172Z,0.80
2023-09-21T11:52:37.182Z,1.10
2023-09-21T11:56:37.651Z,1.80
2023-09-21T12:00:45.779Z,1.30
2023-09-21T12:04:37.919Z,1.20
2023-09-21T12:08:37.388Z,0.80
2023-09-21T12:12:37.139Z,1.00
2023-09-21T12:16:37.424Z,1.20
2023-09-21T12:20:37.189Z,1.10
2023-09-21T12:24:37.167Z,1.10
2023-09-21T12:28:37.127Z,1.60
2023-09-21T12:32:38.852Z,0.90
2023-09-21T12:36:44.953Z,1.20
2023-09-21T12:40:38.589Z,1.20
2023-09-21T12:44:37.117Z,1.60
2023-09-21T12:48:38.260Z,1.30
2023-09-21T12:52:37.992Z,1.40
2023-09-21T12:56:37.541Z,1.20
2023-09-21T13:00:38.145Z,1.10
2023-09-21T13:04:37.336Z,1.10
2023-09-21T13:08:37.441Z,1.00
2023-09-21T13:12:39.518Z,1.30
2023-09-21T13:16:37.243Z,1.30
2023-09-21T13:20:37.384Z,2.10
2023-09-21T13:24:37.449Z,1.00
2023-09-21T13:28:37.327Z,1.20
2023-09-21T13:32:37.554Z,1.60
2023-09-21T13:36:37.489Z,1.40
2023-09-21T13:40:37.595Z,1.10
2023-09-21T13:44:37.440Z,1.30
2023-09-21T13:48:38.579Z,1.20
2023-09-21T13:52:37.824Z,1.20
2023-09-21T13:56:37.699Z,0.60
2023-09-21T14:00:37.599Z,0.80
2023-09-21T14:04:38.398Z,0.80
2023-09-21T14:08:38.504Z,1.20
2023-09-21T14:12:37.717Z,1.10
2023-09-21T14:16:37.659Z,1.00
2023-09-21T14:20:37.538Z,1.00
2023-09-21T14:24:38.643Z,0.70
2023-09-21T14:28:37.639Z,1.20
2023-09-21T14:32:37.776Z,1.70
2023-09-21T14:36:39.760Z,0.90
2023-09-21T14:44:38.013Z,0.80
2023-09-21T14:48:37.522Z,0.80
2023-09-21T14:52:37.589Z,0.80
2023-09-21T14:56:37.518Z,0.80
2023-09-21T15:00:38.354Z,1.00
2023-09-21T15:04:39.707Z,1.10
2023-09-21T15:08:38.579Z,1.20
2023-09-21T15:12:38.856Z,1.00
2023-09-21T15:16:37.798Z,1.00
2023-09-21T15:20:37.965Z,1.20
2023-09-21T15:24:38.090Z,1.00
2023-09-21T15:28:37.576Z,1.10
2023-09-21T15:32:37.845Z,0.80
2023-09-21T15:36:40.975Z,0.90
2023-09-21T15:40:37.938Z,0.70
2023-09-21T15:44:37.630Z,0.80
2023-09-21T15:48:38.283Z,1.00
2023-09-21T15:52:37.729Z,1.10
2023-09-21T15:56:38.562Z,0.90
2023-09-21T16:00:37.749Z,1.20
2023-09-21T16:04:39.469Z,0.80
2023-09-21T16:08:37.731Z,1.10
2023-09-21T16:12:38.011Z,1.20
2023-09-21T16:17:05.031Z,1.40
2023-09-21T16:20:39.620Z,0.70
2023-09-21T16:24:37.974Z,1.10
2023-09-21T16:28:38.229Z,0.60
2023-09-21T16:32:06.863Z,0.70
2023-09-21T16:32:37.950Z,0.70
2023-09-21T16:36:38.015Z,0.50
2023-09-21T16:40:38.565Z,0.60
2023-09-21T16:44:37.860Z,0.50
2023-09-21T16:48:37.847Z,0.40
2023-09-21T16:52:39.522Z,0.30
2023-09-21T16:56:38.273Z,0.40
2023-09-21T17:02:08.835Z,0.40
2023-09-21T17:04:37.952Z,0.40
2023-09-21T17:08:38.052Z,0.50
2023-09-21T17:12:39.259Z,0.50
2023-09-21T17:16:38.057Z,1.90
2023-09-21T17:20:50.450Z,1.40
2023-09-21T17:24:31.358Z,1.00
2023-09-21T17:24:37.823Z,1.00
2023-09-21T17:28:37.969Z,1.10
2023-09-21T17:35:37.428Z,1.50
2023-09-21T17:36:37.952Z,1.50
2023-09-21T17:41:22.136Z,1.30
2023-09-21T17:45:08.353Z,0.70
2023-09-21T17:49:02.535Z,0.80
2023-09-21T17:52:38.032Z,0.80
2023-09-21T17:56:38.435Z,0.70
2023-09-21T18:00:38.277Z,0.80
2023-09-21T18:04:38.411Z,1.10
2023-09-21T18:08:39.211Z,1.10
2023-09-21T18:12:39.992Z,1.10
2023-09-21T18:16:38.244Z,1.00
2023-09-21T18:20:39.288Z,0.90
2023-09-21T18:24:38.191Z,0.90
2023-09-21T18:32:38.542Z,0.90
2023-09-21T18:36:38.253Z,0.90
2023-09-21T18:40:43.479Z,0.60
2023-09-21T18:44:39.549Z,0.60
2023-09-21T18:48:38.366Z,0.70
2023-09-21T18:52:38.749Z,0.70
2023-09-21T18:56:50.627Z,0.70
2023-09-21T19:00:38.830Z,1.10
2023-09-21T19:04:39.794Z,0.80
2023-09-21T19:08:38.618Z,0.80
2023-09-21T19:12:39.214Z,0.90
2023-09-21T19:20:38.493Z,1.30
2023-09-21T19:24:38.394Z,1.10
2023-09-21T19:28:38.684Z,1.00
2023-09-21T19:32:38.339Z,0.70
2023-09-21T19:36:38.676Z,0.90
2023-09-21T19:40:38.510Z,1.00
2023-09-21T19:44:38.575Z,0.90
2023-09-21T19:48:38.384Z,0.70
2023-09-21T19:52:39.677Z,0.80
2023-09-21T19:56:40.312Z,0.70
2023-09-21T20:00:41.126Z,0.80
2023-09-21T20:04:38.712Z,0.70
2023-09-21T20:08:41.346Z,0.80
2023-09-21T20:12:38.590Z,0.90
2023-09-21T20:16:38.549Z,0.70
2023-09-21T20:20:38.567Z,0.80
2023-09-21T20:24:38.685Z,0.80
2023-09-21T20:28:38.449Z,0.90
2023-09-21T20:32:39.276Z,0.80
2023-09-21T20:36:38.558Z,0.80
2023-09-21T20:40:39.679Z,0.70
2023-09-21T20:44:40.121Z,0.80
2023-09-21T20:48:38.607Z,0.90
2023-09-21T20:52:38.603Z,1.20
2023-09-21T20:56:39.918Z,1.00
2023-09-21T21:00:38.761Z,1.10
2023-09-21T21:04:38.630Z,1.00
2023-09-21T21:08:38.728Z,0.80
2023-09-21T21:12:38.954Z,1.20
2023-09-21T21:19:29.898Z,1.10
2023-09-21T21:21:13.879Z,1.10
2023-09-21T21:24:38.643Z,0.80
2023-09-21T21:28:38.817Z,0.90
2023-09-21T21:32:38.720Z,0.70
2023-09-21T21:36:39.594Z,1.00
2023-09-21T21:40:38.638Z,1.10
2023-09-21T21:44:38.924Z,0.90
2023-09-21T21:48:38.719Z,1.10
2023-09-21T21:52:38.782Z,1.00
2023-09-21T21:56:38.700Z,0.90
2023-09-21T22:00:39.579Z,1.10
2023-09-21T22:04:40.146Z,1.10
2023-09-21T22:08:38.972Z,0.80
2023-09-21T22:12:38.772Z,0.90
2023-09-21T22:16:39.304Z,1.20
2023-09-21T22:20:40.163Z,1.30
2023-09-21T22:24:39.032Z,1.10
2023-09-21T22:32:39.103Z,1.20
2023-09-21T22:36:38.834Z,1.30
2023-09-21T22:40:39.072Z,1.20
2023-09-21T22:44:39.185Z,1.60
2023-09-21T22:48:42.033Z,1.30
2023-09-21T22:52:38.809Z,1.30
2023-09-21T22:56:38.994Z,1.50
2023-09-21T23:00:39.443Z,1.30
2023-09-21T23:04:39.233Z,1.20
2023-09-21T23:08:39.103Z,1.40
2023-09-21T23:12:39.498Z,1.70
2023-09-21T23:16:38.997Z,1.70
2023-09-21T23:20:39.987Z,1.60
2023-09-21T23:24:39.214Z,1.60
2023-09-21T23:28:40.647Z,1.20
2023-09-21T23:32:39.580Z,1.60
2023-09-21T23:36:39.703Z,1.40
2023-09-21T23:40:39.000Z,1.60
2023-09-21T23:44:39.974Z,1.40
2023-09-21T23:48:40.105Z,1.30
2023-09-21T23:52:40.497Z,1.60
2023-09-21T23:56:38.988Z,1.50
